sensor_id;sensor_type;location;lat;lon;timestamp;pressure;altitude;pressure_sealevel;temperature;humidity
6345;BME280;3205;42.666;23.264;2023-12-20T00:01:58;94741.84;;;1.01;100.00
6345;BME280;3205;42.666;23.264;2023-12-20T00:04:25;94738.47;;;1.00;100.00
6345;BME280;3205;42.666;23.264;2023-12-20T00:06:51;94738.72;;;0.94;100.00
6345;BME280;3205;42.666;23.264;2023-12-20T00:09:17;94725.75;;;0.89;100.00
6345;BME280;3205;42.666;23.264;2023-12-20T00:11:43;94728.31;;;0.94;100.00
6345;BME280;3205;42.666;23.264;2023-12-20T00:14:11;94720.50;;;1.04;100.00
6345;BME280;3205;42.666;23.264;2023-12-20T00:16:37;94727.28;;;0.95;100.00
6345;BME280;3205;42.666;23.264;2023-12-20T00:19:03;94726.25;;;0.91;100.00
6345;BME280;3205;42.666;23.264;2023-12-20T00:21:29;94719.75;;;0.93;100.00
6345;BME280;3205;42.666;23.264;2023-12-20T00:23:55;94706.75;;;0.93;100.00
6345;BME280;3205;42.666;23.264;2023-12-20T00:26:22;94708.56;;;0.88;100.00
6345;BME280;3205;42.666;23.264;2023-12-20T00:28:48;94705.47;;;0.81;100.00
6345;BME280;3205;42.666;23.264;2023-12-20T00:31:15;94704.69;;;0.85;100.00
6345;BME280;3205;42.666;23.264;2023-12-20T00:33:41;94694.81;;;0.77;100.00
6345;BME280;3205;42.666;23.264;2023-12-20T00:36:09;94694.03;;;0.72;100.00
6345;BME280;3205;42.666;23.264;2023-12-20T00:38:35;94680.00;;;0.73;100.00
6345;BME280;3205;42.666;23.264;2023-12-20T00:41:02;94676.06;;;0.75;100.00
6345;BME280;3205;42.666;23.264;2023-12-20T00:43:28;94677.41;;;0.78;100.00
6345;BME280;3205;42.666;23.264;2023-12-20T00:45:54;94680.00;;;0.78;100.00
6345;BME280;3205;42.666;23.264;2023-12-20T00:48:22;94676.84;;;0.81;100.00
6345;BME280;3205;42.666;23.264;2023-12-20T00:50:48;94685.94;;;0.83;100.00
6345;BME280;3205;42.666;23.264;2023-12-20T00:53:15;94682.81;;;0.81;100.00
6345;BME280;3205;42.666;23.264;2023-12-20T00:55:41;94684.94;;;0.74;100.00
6345;BME280;3205;42.666;23.264;2023-12-20T00:58:09;94679.50;;;0.71;100.00
6345;BME280;3205;42.666;23.264;2023-12-20T01:00:35;94673.50;;;0.71;100.00
6345;BME280;3205;42.666;23.264;2023-12-20T01:03:01;94667.25;;;0.72;100.00
6345;BME280;3205;42.666;23.264;2023-12-20T01:05:28;94672.97;;;0.78;100.00
6345;BME280;3205;42.666;23.264;2023-12-20T01:07:55;94656.31;;;0.70;100.00
6345;BME280;3205;42.666;23.264;2023-12-20T01:10:21;94655.56;;;0.69;100.00
6345;BME280;3205;42.666;23.264;2023-12-20T01:12:48;94653.47;;;0.66;100.00
6345;BME280;3205;42.666;23.264;2023-12-20T01:15:14;94658.19;;;0.64;100.00
6345;BME280;3205;42.666;23.264;2023-12-20T01:17:40;94651.66;;;0.67;100.00
6345;BME280;3205;42.666;23.264;2023-12-20T01:20:08;94650.91;;;0.61;100.00
6345;BME280;3205;42.666;23.264;2023-12-20T01:22:35;94657.91;;;0.66;100.00
6345;BME280;3205;42.666;23.264;2023-12-20T01:25:01;94647.78;;;0.64;100.00
6345;BME280;3205;42.666;23.264;2023-12-20T01:27:28;94644.13;;;0.60;100.00
6345;BME280;3205;42.666;23.264;2023-12-20T01:29:54;94639.97;;;0.59;100.00
6345;BME280;3205;42.666;23.264;2023-12-20T01:32:20;94637.66;;;0.53;100.00
6345;BME280;3205;42.666;23.264;2023-12-20T01:34:47;94636.38;;;0.50;100.00
6345;BME280;3205;42.666;23.264;2023-12-20T01:37:14;94624.66;;;0.48;100.00
6345;BME280;3205;42.666;23.264;2023-12-20T01:39:41;94620.00;;;0.45;100.00
6345;BME280;3205;42.666;23.264;2023-12-20T01:42:07;94622.06;;;0.43;100.00
6345;BME280;3205;42.666;23.264;2023-12-20T01:44:33;94618.94;;;0.41;100.00
6345;BME280;3205;42.666;23.264;2023-12-20T01:47:00;94612.72;;;0.42;100.00
6345;BME280;3205;42.666;23.264;2023-12-20T01:49:27;94602.31;;;0.47;100.00
6345;BME280;3205;42.666;23.264;2023-12-20T01:51:54;94610.63;;;0.49;100.00
6345;BME280;3205;42.666;23.264;2023-12-20T01:54:21;94602.81;;;0.49;100.00
6345;BME280;3205;42.666;23.264;2023-12-20T01:56:49;94605.13;;;0.60;100.00
6345;BME280;3205;42.666;23.264;2023-12-20T01:59:17;94601.75;;;0.55;100.00
6345;BME280;3205;42.666;23.264;2023-12-20T02:01:43;94598.41;;;0.44;100.00
6345;BME280;3205;42.666;23.264;2023-12-20T02:04:10;94590.38;;;0.46;100.00
6345;BME280;3205;42.666;23.264;2023-12-20T02:06:36;94590.59;;;0.49;100.00
6345;BME280;3205;42.666;23.264;2023-12-20T02:09:05;94586.97;;;0.45;100.00
6345;BME280;3205;42.666;23.264;2023-12-20T02:11:31;94593.22;;;0.44;100.00
6345;BME280;3205;42.666;23.264;2023-12-20T02:13:59;94592.66;;;0.52;100.00
6345;BME280;3205;42.666;23.264;2023-12-20T02:16:25;94584.38;;;0.45;100.00
6345;BME280;3205;42.666;23.264;2023-12-20T02:18:51;94583.88;;;0.43;100.00
6345;BME280;3205;42.666;23.264;2023-12-20T02:21:17;94585.44;;;0.39;100.00
6345;BME280;3205;42.666;23.264;2023-12-20T02:23:44;94583.34;;;0.41;100.00
6345;BME280;3205;42.666;23.264;2023-12-20T02:26:10;94574.81;;;0.31;100.00
6345;BME280;3205;42.666;23.264;2023-12-20T02:28:39;94570.63;;;0.35;100.00
6345;BME280;3205;42.666;23.264;2023-12-20T02:31:06;94570.88;;;0.33;100.00
6345;BME280;3205;42.666;23.264;2023-12-20T02:33:32;94569.34;;;0.27;100.00
6345;BME280;3205;42.666;23.264;2023-12-20T02:35:58;94559.25;;;0.16;100.00
6345;BME280;3205;42.666;23.264;2023-12-20T02:38:24;94554.34;;;0.09;100.00
6345;BME280;3205;42.666;23.264;2023-12-20T02:40:51;94548.09;;;0.15;100.00
6345;BME280;3205;42.666;23.264;2023-12-20T02:43:18;94550.19;;;0.08;100.00
6345;BME280;3205;42.666;23.264;2023-12-20T02:45:44;94552.50;;;0.10;100.00
6345;BME280;3205;42.666;23.264;2023-12-20T02:48:10;94551.72;;;0.14;100.00
6345;BME280;3205;42.666;23.264;2023-12-20T02:50:36;94548.84;;;0.16;100.00
6345;BME280;3205;42.666;23.264;2023-12-20T02:53:03;94560.00;;;0.21;100.00
6345;BME280;3205;42.666;23.264;2023-12-20T02:55:29;94548.03;;;0.25;100.00
6345;BME280;3205;42.666;23.264;2023-12-20T02:57:56;94558.41;;;0.35;100.00
6345;BME280;3205;42.666;23.264;2023-12-20T03:00:22;94545.44;;;0.30;100.00
6345;BME280;3205;42.666;23.264;2023-12-20T03:02:49;94550.13;;;0.28;100.00
6345;BME280;3205;42.666;23.264;2023-12-20T03:05:15;94549.09;;;0.29;100.00
6345;BME280;3205;42.666;23.264;2023-12-20T03:07:42;94546.22;;;0.21;100.00
6345;BME280;3205;42.666;23.264;2023-12-20T03:10:08;94543.66;;;0.11;100.00
6345;BME280;3205;42.666;23.264;2023-12-20T03:12:35;94547.56;;;0.08;100.00
6345;BME280;3205;42.666;23.264;2023-12-20T03:15:02;94543.94;;;0.09;100.00
6345;BME280;3205;42.666;23.264;2023-12-20T03:17:29;94546.78;;;0.08;100.00
6345;BME280;3205;42.666;23.264;2023-12-20T03:19:56;94547.81;;;0.07;100.00
6345;BME280;3205;42.666;23.264;2023-12-20T03:22:22;94539.00;;;0.08;100.00
6345;BME280;3205;42.666;23.264;2023-12-20T03:24:48;94538.75;;;0.04;100.00
6345;BME280;3205;42.666;23.264;2023-12-20T03:27:14;94543.16;;;0.09;100.00
6345;BME280;3205;42.666;23.264;2023-12-20T03:29:41;94532.22;;;0.07;100.00
6345;BME280;3205;42.666;23.264;2023-12-20T03:32:08;94529.38;;;0.13;100.00
6345;BME280;3205;42.666;23.264;2023-12-20T03:34:34;94526.28;;;0.06;100.00
6345;BME280;3205;42.666;23.264;2023-12-20T03:37:00;94519.25;;;0.07;100.00
6345;BME280;3205;42.666;23.264;2023-12-20T03:39:27;94519.50;;;0.10;100.00
6345;BME280;3205;42.666;23.264;2023-12-20T03:41:53;94521.59;;;0.03;100.00
6345;BME280;3205;42.666;23.264;2023-12-20T03:44:19;94528.88;;;0.06;100.00
6345;BME280;3205;42.666;23.264;2023-12-20T03:46:46;94527.84;;;0.07;100.00
6345;BME280;3205;42.666;23.264;2023-12-20T03:49:12;94532.00;;;0.08;100.00
6345;BME280;3205;42.666;23.264;2023-12-20T03:51:39;94526.31;;;-0.13;100.00
6345;BME280;3205;42.666;23.264;2023-12-20T03:54:05;94525.28;;;-0.12;100.00
6345;BME280;3205;42.666;23.264;2023-12-20T03:56:31;94518.50;;;-0.08;100.00
6345;BME280;3205;42.666;23.264;2023-12-20T03:58:57;94518.78;;;-0.10;100.00
6345;BME280;3205;42.666;23.264;2023-12-20T04:01:24;94511.53;;;-0.18;100.00
6345;BME280;3205;42.666;23.264;2023-12-20T04:03:50;94503.19;;;-0.20;100.00
6345;BME280;3205;42.666;23.264;2023-12-20T04:06:17;94503.44;;;-0.06;100.00
6345;BME280;3205;42.666;23.264;2023-12-20T04:08:44;94497.09;;;0.29;100.00
6345;BME280;3205;42.666;23.264;2023-12-20T04:11:10;94491.25;;;0.52;100.00
6345;BME280;3205;42.666;23.264;2023-12-20T04:13:36;94496.69;;;0.61;100.00
6345;BME280;3205;42.666;23.264;2023-12-20T04:16:03;94494.66;;;0.53;100.00
6345;BME280;3205;42.666;23.264;2023-12-20T04:18:29;94492.56;;;0.50;100.00
6345;BME280;3205;42.666;23.264;2023-12-20T04:21:01;94482.66;;;0.57;100.00
6345;BME280;3205;42.666;23.264;2023-12-20T04:23:28;94485.91;;;0.29;100.00
6345;BME280;3205;42.666;23.264;2023-12-20T04:25:54;94482.56;;;0.18;100.00
6345;BME280;3205;42.666;23.264;2023-12-20T04:28:20;94487.00;;;0.18;100.00
6345;BME280;3205;42.666;23.264;2023-12-20T04:30:47;94479.22;;;0.18;100.00
6345;BME280;3205;42.666;23.264;2023-12-20T04:33:13;94485.66;;;0.25;100.00
6345;BME280;3205;42.666;23.264;2023-12-20T04:35:40;94479.47;;;0.16;100.00
6345;BME280;3205;42.666;23.264;2023-12-20T04:38:08;94478.41;;;0.17;100.00
6345;BME280;3205;42.666;23.264;2023-12-20T04:40:35;94467.28;;;0.07;100.00
6345;BME280;3205;42.666;23.264;2023-12-20T04:43:01;94475.63;;;-0.06;100.00
6345;BME280;3205;42.666;23.264;2023-12-20T04:45:27;94477.50;;;-0.11;100.00
6345;BME280;3205;42.666;23.264;2023-12-20T04:47:55;94476.66;;;0.03;100.00
6345;BME280;3205;42.666;23.264;2023-12-20T04:50:21;94465.50;;;0.02;100.00
6345;BME280;3205;42.666;23.264;2023-12-20T04:52:47;94467.56;;;0.00;100.00
6345;BME280;3205;42.666;23.264;2023-12-20T04:55:13;94472.78;;;0.00;100.00
6345;BME280;3205;42.666;23.264;2023-12-20T04:57:40;94468.63;;;-0.05;100.00
6345;BME280;3205;42.666;23.264;2023-12-20T05:00:07;94474.91;;;-0.11;100.00
6345;BME280;3205;42.666;23.264;2023-12-20T05:02:34;94468.94;;;-0.17;100.00
6345;BME280;3205;42.666;23.264;2023-12-20T05:05:01;94463.75;;;-0.27;100.00
6345;BME280;3205;42.666;23.264;2023-12-20T05:07:27;94464.03;;;-0.28;100.00
6345;BME280;3205;42.666;23.264;2023-12-20T05:09:53;94458.56;;;-0.32;100.00
6345;BME280;3205;42.666;23.264;2023-12-20T05:12:20;94452.63;;;-0.32;100.00
6345;BME280;3205;42.666;23.264;2023-12-20T05:14:46;94456.53;;;-0.35;100.00
6345;BME280;3205;42.666;23.264;2023-12-20T05:17:13;94459.41;;;-0.46;100.00
6345;BME280;3205;42.666;23.264;2023-12-20T05:19:39;94453.16;;;-0.55;100.00
6345;BME280;3205;42.666;23.264;2023-12-20T05:22:05;94447.41;;;-0.37;100.00
6345;BME280;3205;42.666;23.264;2023-12-20T05:24:31;94446.13;;;-0.40;100.00
6345;BME280;3205;42.666;23.264;2023-12-20T05:26:58;94439.66;;;-0.42;100.00
6345;BME280;3205;42.666;23.264;2023-12-20T05:29:24;94442.50;;;-0.39;100.00
6345;BME280;3205;42.666;23.264;2023-12-20T05:31:51;94431.28;;;-0.29;100.00
6345;BME280;3205;42.666;23.264;2023-12-20T05:34:17;94442.50;;;-0.39;100.00
6345;BME280;3205;42.666;23.264;2023-12-20T05:37:02;94433.91;;;-0.34;100.00
6345;BME280;3205;42.666;23.264;2023-12-20T05:39:29;94431.03;;;-0.33;100.00
6345;BME280;3205;42.666;23.264;2023-12-20T05:41:56;94439.41;;;-0.41;100.00
6345;BME280;3205;42.666;23.264;2023-12-20T05:44:22;94441.72;;;-0.39;100.00
6345;BME280;3205;42.666;23.264;2023-12-20T05:46:49;94436.00;;;-0.36;100.00
6345;BME280;3205;42.666;23.264;2023-12-20T05:49:16;94436.00;;;-0.41;100.00
6345;BME280;3205;42.666;23.264;2023-12-20T05:51:42;94439.66;;;-0.42;100.00
6345;BME280;3205;42.666;23.264;2023-12-20T05:54:09;94433.97;;;-0.44;100.00
6345;BME280;3205;42.666;23.264;2023-12-20T05:56:35;94427.22;;;-0.45;100.00
6345;BME280;3205;42.666;23.264;2023-12-20T05:59:01;94424.84;;;-0.47;100.00
6345;BME280;3205;42.666;23.264;2023-12-20T06:01:28;94418.91;;;-0.52;100.00
6345;BME280;3205;42.666;23.264;2023-12-20T06:03:54;94427.69;;;-0.43;100.00
6345;BME280;3205;42.666;23.264;2023-12-20T06:06:21;94422.25;;;-0.47;100.00
6345;BME280;3205;42.666;23.264;2023-12-20T06:08:47;94422.81;;;-0.55;100.00
6345;BME280;3205;42.666;23.264;2023-12-20T06:11:13;94423.81;;;-0.46;100.00
6345;BME280;3205;42.666;23.264;2023-12-20T06:13:40;94416.03;;;-0.51;100.00
6345;BME280;3205;42.666;23.264;2023-12-20T06:16:06;94426.69;;;-0.47;100.00
6345;BME280;3205;42.666;23.264;2023-12-20T06:18:33;94421.72;;;-0.39;100.00
6345;BME280;3205;42.666;23.264;2023-12-20T06:20:59;94435.25;;;-0.42;100.00
6345;BME280;3205;42.666;23.264;2023-12-20T06:23:26;94419.38;;;-0.35;100.00
6345;BME280;3205;42.666;23.264;2023-12-20T06:25:53;94423.56;;;-0.44;100.00
6345;BME280;3205;42.666;23.264;2023-12-20T06:28:19;94429.25;;;-0.32;100.00
6345;BME280;3205;42.666;23.264;2023-12-20T06:30:46;94422.50;;;-0.33;100.00
6345;BME280;3205;42.666;23.264;2023-12-20T06:33:12;94418.03;;;-0.18;100.00
6345;BME280;3205;42.666;23.264;2023-12-20T06:35:39;94421.91;;;-0.15;100.00
6345;BME280;3205;42.666;23.264;2023-12-20T06:38:05;94425.00;;;-0.08;100.00
6345;BME280;3205;42.666;23.264;2023-12-20T06:40:32;94424.19;;;-0.04;100.00
6345;BME280;3205;42.666;23.264;2023-12-20T06:42:58;94421.91;;;-0.10;100.00
6345;BME280;3205;42.666;23.264;2023-12-20T06:45:25;94413.03;;;0.00;100.00
6345;BME280;3205;42.666;23.264;2023-12-20T06:47:51;94411.63;;;0.18;100.00
6345;BME280;3205;42.666;23.264;2023-12-20T06:50:17;94403.50;;;0.34;100.00
6345;BME280;3205;42.666;23.264;2023-12-20T06:52:44;94400.13;;;0.34;100.00
6345;BME280;3205;42.666;23.264;2023-12-20T06:55:10;94398.34;;;0.29;100.00
6345;BME280;3205;42.666;23.264;2023-12-20T06:57:37;94399.00;;;0.45;100.00
6345;BME280;3205;42.666;23.264;2023-12-20T07:00:05;94402.59;;;0.54;100.00
6345;BME280;3205;42.666;23.264;2023-12-20T07:02:31;94392.41;;;0.62;100.00
6345;BME280;3205;42.666;23.264;2023-12-20T07:04:57;94391.03;;;0.74;100.00
6345;BME280;3205;42.666;23.264;2023-12-20T07:07:24;94383.13;;;1.13;100.00
6345;BME280;3205;42.666;23.264;2023-12-20T07:09:50;94387.69;;;1.54;100.00
6345;BME280;3205;42.666;23.264;2023-12-20T07:12:16;94388.72;;;2.00;100.00
6345;BME280;3205;42.666;23.264;2023-12-20T07:14:45;94382.69;;;2.59;100.00
6345;BME280;3205;42.666;23.264;2023-12-20T07:17:12;94376.91;;;3.12;100.00
6345;BME280;3205;42.666;23.264;2023-12-20T07:19:40;94370.91;;;3.84;100.00
6345;BME280;3205;42.666;23.264;2023-12-20T07:22:07;94372.34;;;4.30;100.00
6345;BME280;3205;42.666;23.264;2023-12-20T07:24:34;94378.19;;;4.62;100.00
6345;BME280;3205;42.666;23.264;2023-12-20T07:27:00;94370.84;;;5.38;100.00
6345;BME280;3205;42.666;23.264;2023-12-20T07:29:26;94381.81;;;5.71;100.00
6345;BME280;3205;42.666;23.264;2023-12-20T07:31:53;94380.19;;;6.30;100.00
6345;BME280;3205;42.666;23.264;2023-12-20T07:34:20;94381.69;;;6.06;100.00
6345;BME280;3205;42.666;23.264;2023-12-20T07:36:46;94395.06;;;5.66;100.00
6345;BME280;3205;42.666;23.264;2023-12-20T07:39:13;94396.31;;;4.59;100.00
6345;BME280;3205;42.666;23.264;2023-12-20T07:41:39;94391.25;;;3.60;100.00
6345;BME280;3205;42.666;23.264;2023-12-20T07:44:06;94392.06;;;2.97;100.00
6345;BME280;3205;42.666;23.264;2023-12-20T07:46:33;94390.69;;;2.49;100.00
6345;BME280;3205;42.666;23.264;2023-12-20T07:49:00;94391.22;;;2.28;100.00
6345;BME280;3205;42.666;23.264;2023-12-20T07:51:26;94381.41;;;2.02;100.00
6345;BME280;3205;42.666;23.264;2023-12-20T07:53:52;94371.53;;;1.99;100.00
6345;BME280;3205;42.666;23.264;2023-12-20T07:56:19;94376.75;;;1.99;100.00
6345;BME280;3205;42.666;23.264;2023-12-20T07:58:46;94385.25;;;1.86;100.00
6345;BME280;3205;42.666;23.264;2023-12-20T08:01:16;94378.19;;;2.10;100.00
6345;BME280;3205;42.666;23.264;2023-12-20T08:03:43;94380.84;;;2.05;100.00
6345;BME280;3205;42.666;23.264;2023-12-20T08:06:10;94373.63;;;2.20;100.00
6345;BME280;3205;42.666;23.264;2023-12-20T08:08:36;94371.00;;;2.38;100.00
6345;BME280;3205;42.666;23.264;2023-12-20T08:11:02;94365.47;;;2.95;100.00
6345;BME280;3205;42.666;23.264;2023-12-20T08:13:29;94363.63;;;3.27;100.00
6345;BME280;3205;42.666;23.264;2023-12-20T08:15:55;94357.84;;;3.70;100.00
6345;BME280;3205;42.666;23.264;2023-12-20T08:18:22;94350.44;;;4.26;100.00
6345;BME280;3205;42.666;23.264;2023-12-20T08:20:48;94351.75;;;4.50;100.00
6345;BME280;3205;42.666;23.264;2023-12-20T08:23:15;94347.38;;;5.25;100.00
6345;BME280;3205;42.666;23.264;2023-12-20T08:25:42;94355.50;;;5.54;100.00
6345;BME280;3205;42.666;23.264;2023-12-20T08:28:08;94358.38;;;5.66;100.00
6345;BME280;3205;42.666;23.264;2023-12-20T08:30:34;94350.28;;;5.84;100.00
6345;BME280;3205;42.666;23.264;2023-12-20T08:33:01;94358.41;;;5.44;100.00
6345;BME280;3205;42.666;23.264;2023-12-20T08:35:28;94347.63;;;5.23;100.00
6345;BME280;3205;42.666;23.264;2023-12-20T08:37:54;94343.03;;;4.99;100.00
6345;BME280;3205;42.666;23.264;2023-12-20T08:40:21;94348.56;;;4.75;100.00
6345;BME280;3205;42.666;23.264;2023-12-20T08:42:47;94336.19;;;4.32;100.00
6345;BME280;3205;42.666;23.264;2023-12-20T08:45:14;94332.66;;;4.15;100.00
6345;BME280;3205;42.666;23.264;2023-12-20T08:47:40;94333.53;;;4.10;100.00
6345;BME280;3205;42.666;23.264;2023-12-20T08:50:07;94321.81;;;3.94;100.00
6345;BME280;3205;42.666;23.264;2023-12-20T08:52:33;94335.41;;;3.83;100.00
6345;BME280;3205;42.666;23.264;2023-12-20T08:55:00;94319.00;;;3.91;100.00
6345;BME280;3205;42.666;23.264;2023-12-20T08:57:27;94321.44;;;3.87;100.00
6345;BME280;3205;42.666;23.264;2023-12-20T08:59:53;94314.19;;;3.71;100.00
6345;BME280;3205;42.666;23.264;2023-12-20T09:02:19;94309.25;;;3.83;100.00
6345;BME280;3205;42.666;23.264;2023-12-20T09:04:46;94308.28;;;3.79;100.00
6345;BME280;3205;42.666;23.264;2023-12-20T09:07:21;94290.56;;;4.25;100.00
6345;BME280;3205;42.666;23.264;2023-12-20T09:09:48;94291.16;;;4.22;100.00
6345;BME280;3205;42.666;23.264;2023-12-20T09:12:14;94281.25;;;4.32;100.00
6345;BME280;3205;42.666;23.264;2023-12-20T09:14:41;94273.97;;;4.29;100.00
6345;BME280;3205;42.666;23.264;2023-12-20T09:17:07;94270.19;;;4.35;100.00
6345;BME280;3205;42.666;23.264;2023-12-20T09:19:34;94251.94;;;4.43;100.00
6345;BME280;3205;42.666;23.264;2023-12-20T09:22:01;94250.03;;;4.36;100.00
6345;BME280;3205;42.666;23.264;2023-12-20T09:24:27;94240.75;;;4.30;100.00
6345;BME280;3205;42.666;23.264;2023-12-20T09:26:53;94230.41;;;4.25;100.00
6345;BME280;3205;42.666;23.264;2023-12-20T09:29:20;94229.31;;;4.26;100.00
6345;BME280;3205;42.666;23.264;2023-12-20T09:31:47;94226.97;;;4.16;100.00
6345;BME280;3205;42.666;23.264;2023-12-20T09:34:14;94227.06;;;4.33;100.00
6345;BME280;3205;42.666;23.264;2023-12-20T09:36:41;94221.22;;;4.27;100.00
6345;BME280;3205;42.666;23.264;2023-12-20T09:39:12;94206.97;;;4.41;100.00
6345;BME280;3205;42.666;23.264;2023-12-20T09:41:42;94199.31;;;4.45;100.00
6345;BME280;3205;42.666;23.264;2023-12-20T09:44:14;94207.44;;;4.65;100.00
6345;BME280;3205;42.666;23.264;2023-12-20T09:46:43;94200.44;;;4.52;100.00
6345;BME280;3205;42.666;23.264;2023-12-20T09:49:11;94195.75;;;4.71;100.00
6345;BME280;3205;42.666;23.264;2023-12-20T09:51:38;94199.53;;;4.87;100.00
6345;BME280;3205;42.666;23.264;2023-12-20T09:54:05;94186.22;;;5.06;100.00
6345;BME280;3205;42.666;23.264;2023-12-20T09:56:32;94183.31;;;5.15;100.00
6345;BME280;3205;42.666;23.264;2023-12-20T09:58:59;94193.09;;;5.32;100.00
6345;BME280;3205;42.666;23.264;2023-12-20T10:01:26;94200.97;;;5.32;100.00
6345;BME280;3205;42.666;23.264;2023-12-20T10:03:54;94189.75;;;5.57;100.00
6345;BME280;3205;42.666;23.264;2023-12-20T10:06:21;94196.41;;;5.63;100.00
6345;BME280;3205;42.666;23.264;2023-12-20T10:08:48;94192.91;;;5.84;100.00
6345;BME280;3205;42.666;23.264;2023-12-20T10:11:14;94185.91;;;5.63;100.00
6345;BME280;3205;42.666;23.264;2023-12-20T10:13:41;94176.81;;;5.52;100.00
6345;BME280;3205;42.666;23.264;2023-12-20T10:16:07;94172.16;;;5.40;100.00
6345;BME280;3205;42.666;23.264;2023-12-20T10:18:34;94165.63;;;5.21;100.00
6345;BME280;3205;42.666;23.264;2023-12-20T10:21:00;94169.78;;;5.22;100.00
6345;BME280;3205;42.666;23.264;2023-12-20T10:23:27;94153.97;;;5.61;100.00
6345;BME280;3205;42.666;23.264;2023-12-20T10:25:57;94158.31;;;5.65;100.00
6345;BME280;3205;42.666;23.264;2023-12-20T10:28:24;94137.50;;;5.69;100.00
6345;BME280;3205;42.666;23.264;2023-12-20T10:30:53;94140.28;;;5.64;100.00
6345;BME280;3205;42.666;23.264;2023-12-20T10:33:24;94138.63;;;5.76;100.00
6345;BME280;3205;42.666;23.264;2023-12-20T10:35:51;94124.22;;;5.65;100.00
6345;BME280;3205;42.666;23.264;2023-12-20T10:38:18;94116.69;;;5.64;100.00
6345;BME280;3205;42.666;23.264;2023-12-20T10:40:45;94108.50;;;5.65;100.00
6345;BME280;3205;42.666;23.264;2023-12-20T10:43:12;94116.38;;;5.57;100.00
6345;BME280;3205;42.666;23.264;2023-12-20T10:45:39;94108.94;;;5.50;100.00
6345;BME280;3205;42.666;23.264;2023-12-20T10:48:05;94101.41;;;5.57;100.00
6345;BME280;3205;42.666;23.264;2023-12-20T10:50:36;94103.88;;;5.71;100.00
6345;BME280;3205;42.666;23.264;2023-12-20T10:53:04;94092.00;;;5.73;100.00
6345;BME280;3205;42.666;23.264;2023-12-20T10:55:30;94096.34;;;5.86;100.00
6345;BME280;3205;42.666;23.264;2023-12-20T10:58:01;94086.31;;;6.13;100.00
6345;BME280;3205;42.666;23.264;2023-12-20T11:00:28;94093.84;;;5.98;100.00
6345;BME280;3205;42.666;23.264;2023-12-20T11:03:00;94074.25;;;6.12;100.00
6345;BME280;3205;42.666;23.264;2023-12-20T11:05:38;94069.44;;;6.23;100.00
6345;BME280;3205;42.666;23.264;2023-12-20T11:08:10;94066.09;;;6.05;100.00
6345;BME280;3205;42.666;23.264;2023-12-20T11:10:43;94066.09;;;6.05;100.00
6345;BME280;3205;42.666;23.264;2023-12-20T11:13:20;94066.09;;;6.05;100.00
6345;BME280;3205;42.666;23.264;2023-12-20T11:15:48;94053.44;;;5.99;100.00
6345;BME280;3205;42.666;23.264;2023-12-20T11:18:15;94056.53;;;6.01;100.00
6345;BME280;3205;42.666;23.264;2023-12-20T11:20:42;94037.53;;;6.12;100.00
6345;BME280;3205;42.666;23.264;2023-12-20T11:23:09;94037.38;;;6.09;100.00
6345;BME280;3205;42.666;23.264;2023-12-20T11:25:48;94023.94;;;6.10;100.00
6345;BME280;3205;42.666;23.264;2023-12-20T11:28:21;94030.59;;;6.08;100.00
6345;BME280;3205;42.666;23.264;2023-12-20T11:30:48;94020.13;;;5.99;100.00
6345;BME280;3205;42.666;23.264;2023-12-20T11:33:16;94005.78;;;5.88;100.00
6345;BME280;3205;42.666;23.264;2023-12-20T11:35:42;94004.25;;;5.79;100.00
6345;BME280;3205;42.666;23.264;2023-12-20T11:38:09;94007.63;;;5.96;100.00
6345;BME280;3205;42.666;23.264;2023-12-20T11:40:36;93996.81;;;5.98;100.00
6345;BME280;3205;42.666;23.264;2023-12-20T11:43:03;93989.41;;;6.00;100.00
6345;BME280;3205;42.666;23.264;2023-12-20T11:45:31;93994.75;;;6.20;100.00
6345;BME280;3205;42.666;23.264;2023-12-20T11:47:58;93995.97;;;6.23;100.00
6345;BME280;3205;42.666;23.264;2023-12-20T11:50:24;93986.88;;;6.20;100.00
6345;BME280;3205;42.666;23.264;2023-12-20T11:52:52;93977.09;;;6.29;100.00
6345;BME280;3205;42.666;23.264;2023-12-20T11:55:19;93970.09;;;6.42;100.00
6345;BME280;3205;42.666;23.264;2023-12-20T11:57:45;93975.13;;;6.55;100.00
6345;BME280;3205;42.666;23.264;2023-12-20T12:00:13;93958.63;;;6.75;100.00
6345;BME280;3205;42.666;23.264;2023-12-20T12:02:40;93956.00;;;6.75;100.00
6345;BME280;3205;42.666;23.264;2023-12-20T12:05:07;93951.03;;;6.82;100.00
6345;BME280;3205;42.666;23.264;2023-12-20T12:07:34;93936.66;;;6.79;100.00
6345;BME280;3205;42.666;23.264;2023-12-20T12:10:00;93938.34;;;6.84;100.00
6345;BME280;3205;42.666;23.264;2023-12-20T12:12:27;93937.16;;;7.02;100.00
6345;BME280;3205;42.666;23.264;2023-12-20T12:14:54;93941.94;;;7.20;100.00
6345;BME280;3205;42.666;23.264;2023-12-20T12:17:22;93928.03;;;7.20;100.00
6345;BME280;3205;42.666;23.264;2023-12-20T12:19:49;93924.63;;;7.39;100.00
6345;BME280;3205;42.666;23.264;2023-12-20T12:22:15;93917.84;;;7.50;100.00
6345;BME280;3205;42.666;23.264;2023-12-20T12:24:42;93918.59;;;7.39;100.00
6345;BME280;3205;42.666;23.264;2023-12-20T12:27:09;93914.97;;;7.43;100.00
6345;BME280;3205;42.666;23.264;2023-12-20T12:29:36;93915.84;;;7.36;100.00
6345;BME280;3205;42.666;23.264;2023-12-20T12:32:05;93913.94;;;7.24;100.00
6345;BME280;3205;42.666;23.264;2023-12-20T12:34:31;93917.03;;;7.06;100.00
6345;BME280;3205;42.666;23.264;2023-12-20T12:36:58;93922.03;;;6.99;100.00
6345;BME280;3205;42.666;23.264;2023-12-20T12:39:25;93918.47;;;6.74;100.00
6345;BME280;3205;42.666;23.264;2023-12-20T12:41:51;93921.59;;;6.68;100.00
6345;BME280;3205;42.666;23.264;2023-12-20T12:44:17;93918.28;;;6.30;100.00
6345;BME280;3205;42.666;23.264;2023-12-20T12:46:44;93904.97;;;6.35;100.00
6345;BME280;3205;42.666;23.264;2023-12-20T12:49:11;93909.13;;;6.36;100.00
6345;BME280;3205;42.666;23.264;2023-12-20T12:51:38;93905.63;;;6.32;100.00
6345;BME280;3205;42.666;23.264;2023-12-20T12:54:05;93901.66;;;6.26;100.00
6345;BME280;3205;42.666;23.264;2023-12-20T12:56:31;93899.31;;;6.25;100.00
6345;BME280;3205;42.666;23.264;2023-12-20T12:58:57;93895.47;;;6.22;100.00
6345;BME280;3205;42.666;23.264;2023-12-20T13:01:23;93892.56;;;6.24;100.00
6345;BME280;3205;42.666;23.264;2023-12-20T13:03:50;93892.66;;;6.27;100.00
6345;BME280;3205;42.666;23.264;2023-12-20T13:06:16;93894.47;;;6.35;100.00
6345;BME280;3205;42.666;23.264;2023-12-20T13:08:43;93892.94;;;6.34;100.00